Time;durP1;ratioP1;P1;durP2;ratioP2;P2;SDS_P1;SDS_P2;PMS_P1;PMS_P2;Temp;Humidity;BMP_temperature;BMP_pressure;BME280_temperature;BME280_humidity;BME280_pressure;Samples;Min_cycle;Max_cycle;Signal;HPM_P1;HPM_P2
2022/12/24 00:02:21;;;;;;;8.43;1.75;;;9.90;99.90;;;;;;5006229;28;20068;-66
2022/12/24 00:04:47;;;;;;;4.68;1.60;;;9.90;99.90;;;;;;5008171;28;20060;-67
2022/12/24 00:07:12;;;;;;;11.65;1.88;;;9.80;99.90;;;;;;5007446;28;20034;-65
2022/12/24 00:09:38;;;;;;;7.95;1.45;;;9.80;99.90;;;;;;5007716;28;20034;-65
2022/12/24 00:12:04;;;;;;;7.80;1.45;;;9.80;99.90;;;;;;5029152;28;20095;-66
2022/12/24 00:14:30;;;;;;;7.65;1.58;;;9.80;99.90;;;;;;5007298;28;20034;-66
2022/12/24 00:16:55;;;;;;;7.95;1.23;;;9.90;99.90;;;;;;5005076;28;20101;-66
2022/12/24 00:19:21;;;;;;;6.63;1.38;;;9.90;99.90;;;;;;4988547;28;20496;-67
2022/12/24 00:21:46;;;;;;;3.67;1.20;;;10.00;99.90;;;;;;4989143;28;20042;-64
2022/12/24 00:24:12;;;;;;;7.53;1.30;;;10.00;99.90;;;;;;5004169;28;20062;-66
2022/12/24 00:26:38;;;;;;;9.38;1.45;;;10.00;99.90;;;;;;4995852;28;20057;-67
2022/12/24 00:29:03;;;;;;;4.25;1.00;;;9.90;99.90;;;;;;5003121;28;20395;-66
2022/12/24 00:31:29;;;;;;;9.23;1.52;;;9.90;99.90;;;;;;5000986;28;20034;-67
2022/12/24 00:33:55;;;;;;;7.50;1.40;;;9.90;99.90;;;;;;4996164;28;20066;-67
2022/12/24 00:36:20;;;;;;;7.10;1.42;;;10.00;99.90;;;;;;4988533;28;20112;-65
2022/12/24 00:38:46;;;;;;;6.05;1.23;;;10.00;99.90;;;;;;4997987;28;20490;-65
2022/12/24 00:41:27;;;;;;;5.80;1.20;;;10.00;99.90;;;;;;5024333;28;20514;-66
2022/12/24 00:43:57;;;;;;;5.72;1.45;;;10.00;99.90;;;;;;5013265;28;20038;-65
2022/12/24 00:46:24;;;;;;;7.93;1.50;;;10.00;99.90;;;;;;5007881;28;20073;-65
2022/12/24 00:48:50;;;;;;;4.30;1.08;;;10.00;99.90;;;;;;5007473;28;20537;-65
2022/12/24 00:51:16;;;;;;;5.82;1.60;;;10.00;99.90;;;;;;5002180;28;20042;-68
2022/12/24 00:53:42;;;;;;;9.25;1.40;;;10.10;99.90;;;;;;4990767;28;20022;-66
2022/12/24 00:56:08;;;;;;;4.53;1.00;;;10.10;99.90;;;;;;5007459;28;20454;-65
2022/12/24 00:58:33;;;;;;;4.82;1.25;;;10.00;99.90;;;;;;5006358;28;20128;-67
2022/12/24 01:00:59;;;;;;;3.88;1.00;;;10.10;99.90;;;;;;4988760;28;20117;-66
2022/12/24 01:03:34;;;;;;;6.00;1.38;;;10.10;99.90;;;;;;4992428;28;20029;-67
2022/12/24 01:06:11;;;;;;;3.58;1.10;;;10.10;99.90;;;;;;5018473;28;20031;-65
2022/12/24 01:08:36;;;;;;;6.68;0.95;;;10.10;99.90;;;;;;4992604;28;20022;-66
2022/12/24 01:11:04;;;;;;;6.75;1.15;;;10.10;99.90;;;;;;5002076;28;20459;-66
2022/12/24 01:13:29;;;;;;;4.47;1.00;;;10.00;99.90;;;;;;5009304;28;20014;-67
2022/12/24 01:15:55;;;;;;;6.90;1.20;;;10.10;99.90;;;;;;5012433;28;20030;-66
2022/12/24 01:18:22;;;;;;;11.18;1.48;;;10.10;99.90;;;;;;5005977;28;20034;-68
2022/12/24 01:20:59;;;;;;;8.40;1.10;;;10.10;99.90;;;;;;5012421;28;20042;-65
2022/12/24 01:23:24;;;;;;;5.90;1.50;;;10.10;99.90;;;;;;5001986;28;20458;-68
2022/12/24 01:25:50;;;;;;;6.28;1.30;;;10.10;99.90;;;;;;5008912;28;20045;-66
2022/12/24 01:28:16;;;;;;;6.13;1.08;;;10.10;99.90;;;;;;5010407;28;20041;-67
2022/12/24 01:30:42;;;;;;;11.68;1.15;;;10.00;99.90;;;;;;4998505;28;20545;-67
2022/12/24 01:33:07;;;;;;;4.47;1.13;;;10.00;99.90;;;;;;4997801;28;20034;-65
2022/12/24 01:35:33;;;;;;;5.07;1.45;;;9.90;99.90;;;;;;5010201;28;20065;-67
2022/12/24 01:37:59;;;;;;;7.18;1.17;;;9.90;99.90;;;;;;5010888;28;20040;-67
2022/12/24 01:43:24;;;;;;;6.40;1.25;;;9.80;99.90;;;;;;5016391;28;20052;-66
2022/12/24 01:45:53;;;;;;;6.10;1.33;;;9.70;99.90;;;;;;5012230;28;20026;-66
2022/12/24 01:48:43;;;;;;;5.47;1.15;;;9.70;99.90;;;;;;5007483;28;20435;-65
2022/12/24 01:51:21;;;;;;;5.28;1.30;;;9.70;99.90;;;;;;5007294;28;20111;-67
2022/12/24 01:53:51;;;;;;;8.88;1.50;;;9.60;99.90;;;;;;5006735;28;20026;-66
2022/12/24 01:56:18;;;;;;;4.57;1.02;;;9.60;99.90;;;;;;5031924;28;20041;-67
2022/12/24 01:58:49;;;;;;;7.68;1.65;;;9.60;99.90;;;;;;5016362;28;20128;-67
2022/12/24 02:01:15;;;;;;;7.68;1.67;;;9.60;99.90;;;;;;4992633;28;20073;-68
2022/12/24 02:03:40;;;;;;;8.85;1.85;;;9.50;99.90;;;;;;4998780;28;20263;-67
2022/12/24 02:06:08;;;;;;;4.93;1.20;;;9.50;99.90;;;;;;5010239;28;20578;-67
2022/12/24 02:08:39;;;;;;;7.45;1.30;;;9.50;99.90;;;;;;5007953;28;20029;-67
2022/12/24 02:11:17;;;;;;;10.02;1.65;;;9.50;99.90;;;;;;5011436;28;20045;-66
2022/12/24 02:13:47;;;;;;;6.97;1.15;;;9.40;99.90;;;;;;5004585;28;20029;-66
2022/12/24 02:16:13;;;;;;;;;;;9.40;99.90;;;;;;4992409;28;20030;-67
2022/12/24 02:18:57;;;;;;;9.60;1.63;;;9.40;99.90;;;;;;5006492;28;19920;-66
2022/12/24 02:21:51;;;;;;;9.50;1.60;;;9.40;99.90;;;;;;5011145;28;20088;-68
2022/12/24 02:24:33;;;;;;;10.90;2.25;;;9.50;99.90;;;;;;5006128;28;20058;-67
2022/12/24 02:27:07;;;;;;;9.20;1.52;;;9.40;99.90;;;;;;5011097;28;20471;-66
2022/12/24 02:29:57;;;;;;;7.43;1.20;;;9.40;99.90;;;;;;5007708;28;20100;-65
2022/12/24 02:32:31;;;;;;;7.03;1.67;;;9.40;99.90;;;;;;5011082;28;20057;-67
2022/12/24 02:35:07;;;;;;;6.22;1.50;;;9.40;99.90;;;;;;5008656;28;20045;-65
2022/12/24 02:37:42;;;;;;;5.10;1.70;;;9.40;99.90;;;;;;5004726;28;20041;-65
2022/12/24 02:40:15;;;;;;;7.82;1.63;;;9.40;99.90;;;;;;4995345;28;20048;-67
2022/12/24 02:42:59;;;;;;;13.23;1.90;;;9.30;99.90;;;;;;4997370;28;20060;-67
2022/12/24 02:45:31;;;;;;;6.53;1.50;;;9.30;99.90;;;;;;5008606;28;20110;-70
2022/12/24 02:47:58;;;;;;;11.45;2.08;;;9.30;99.90;;;;;;4999787;28;20026;-65
2022/12/24 02:50:24;;;;;;;14.70;1.80;;;9.30;99.90;;;;;;5020947;28;20509;-67
2022/12/24 02:52:50;;;;;;;15.20;2.83;;;9.40;99.90;;;;;;4990967;28;20053;-67
2022/12/24 02:55:31;;;;;;;17.48;1.80;;;9.30;99.90;;;;;;4990811;28;20038;-65
2022/12/24 02:58:22;;;;;;;10.85;1.70;;;9.30;99.90;;;;;;4990091;28;20031;-65
2022/12/24 03:00:50;;;;;;;13.57;2.35;;;9.20;99.90;;;;;;5018489;28;20256;-67
2022/12/24 03:03:34;;;;;;;9.18;2.28;;;9.20;99.90;;;;;;5003201;28;20041;-65
2022/12/24 03:06:43;;;;;;;12.23;1.85;;;9.20;99.90;;;;;;5010434;28;20030;-67
2022/12/24 03:09:29;;;;;;;12.10;1.85;;;9.20;99.90;;;;;;5006459;28;20065;-65
2022/12/24 03:12:06;;;;;;;8.63;1.60;;;9.20;99.90;;;;;;4992259;28;20041;-65
2022/12/24 03:14:33;;;;;;;9.95;2.75;;;9.20;99.90;;;;;;5015866;28;20044;-65
2022/12/24 03:17:01;;;;;;;14.18;2.17;;;9.20;99.90;;;;;;5020953;28;20030;-65
2022/12/24 03:19:27;;;;;;;15.85;2.17;;;9.20;99.90;;;;;;5004505;28;20080;-68
2022/12/24 03:21:56;;;;;;;13.10;2.55;;;9.20;99.90;;;;;;5005972;28;20057;-65
2022/12/24 03:24:22;;;;;;;14.00;2.67;;;9.10;99.90;;;;;;5006928;28;20077;-65
2022/12/24 03:26:49;;;;;;;13.32;2.30;;;9.10;99.90;;;;;;5008354;28;20637;-66
2022/12/24 03:29:16;;;;;;;12.18;2.58;;;9.10;99.90;;;;;;5015720;28;20112;-67
2022/12/24 03:31:47;;;;;;;13.13;2.30;;;9.00;99.90;;;;;;5013932;28;20037;-66
2022/12/24 03:34:14;;;;;;;18.85;2.67;;;9.00;99.90;;;;;;5012823;28;20038;-65
2022/12/24 03:36:40;;;;;;;14.40;2.30;;;8.90;99.90;;;;;;5006605;28;20586;-66
2022/12/24 03:39:06;;;;;;;15.20;2.13;;;8.90;99.90;;;;;;5009061;28;20037;-66
2022/12/24 03:41:31;;;;;;;16.38;2.67;;;8.90;99.90;;;;;;4997526;28;20038;-66
2022/12/24 03:43:57;;;;;;;18.23;3.35;;;8.90;99.90;;;;;;4991213;28;20041;-66
2022/12/24 03:46:23;;;;;;;20.13;2.20;;;8.80;99.90;;;;;;4999872;28;20077;-65
2022/12/24 03:48:48;;;;;;;14.90;2.65;;;8.80;99.90;;;;;;4993288;28;20025;-65
2022/12/24 03:51:18;;;;;;;16.45;2.15;;;8.80;99.90;;;;;;5009990;28;20034;-67
2022/12/24 03:53:43;;;;;;;17.48;3.20;;;8.70;99.90;;;;;;5005528;28;20037;-65
2022/12/24 03:56:09;;;;;;;11.68;2.20;;;8.80;99.90;;;;;;5034988;28;20045;-65
2022/12/24 03:58:35;;;;;;;9.95;2.65;;;8.80;99.90;;;;;;5006218;28;20022;-65
2022/12/24 04:01:00;;;;;;;16.38;3.00;;;8.80;99.90;;;;;;5012868;28;20095;-67
2022/12/24 04:03:26;;;;;;;17.40;2.47;;;8.80;99.90;;;;;;5025324;28;20677;-66
2022/12/24 04:06:07;;;;;;;12.15;1.98;;;8.80;99.90;;;;;;5007600;28;20125;-66
2022/12/24 04:08:33;;;;;;;13.50;2.33;;;8.80;99.90;;;;;;5007931;28;20402;-67
2022/12/24 04:10:59;;;;;;;24.55;3.10;;;8.70;99.90;;;;;;5002051;28;20062;-67
2022/12/24 04:13:25;;;;;;;21.23;2.75;;;8.80;99.90;;;;;;5004355;28;20123;-67
2022/12/24 04:16:08;;;;;;;23.80;2.80;;;8.70;99.90;;;;;;5009133;28;20040;-65
2022/12/24 04:18:35;;;;;;;18.05;2.40;;;8.70;99.90;;;;;;5024807;28;20169;-65
2022/12/24 04:21:01;;;;;;;13.30;2.20;;;8.70;99.90;;;;;;4998158;28;20050;-66
2022/12/24 04:23:30;;;;;;;13.02;2.15;;;8.70;99.90;;;;;;5015960;28;20121;-65
2022/12/24 04:25:58;;;;;;;11.52;2.72;;;8.80;99.90;;;;;;5008447;28;20030;-68
2022/12/24 04:28:24;;;;;;;12.85;2.17;;;8.80;99.90;;;;;;5001762;28;20107;-67
2022/12/24 04:30:49;;;;;;;11.50;2.20;;;8.80;99.90;;;;;;4988487;28;20034;-65
2022/12/24 04:33:15;;;;;;;14.77;2.92;;;8.80;99.90;;;;;;5006716;28;20034;-66
2022/12/24 04:35:41;;;;;;;14.98;2.05;;;8.80;99.90;;;;;;5008041;28;20360;-67
2022/12/24 04:38:08;;;;;;;16.67;2.35;;;8.70;99.90;;;;;;5007622;28;20045;-65
2022/12/24 04:40:34;;;;;;;13.85;2.63;;;8.70;99.90;;;;;;5018883;28;20032;-69
2022/12/24 04:43:00;;;;;;;13.23;2.38;;;8.70;99.90;;;;;;5003711;28;20104;-68
2022/12/24 04:45:26;;;;;;;18.48;2.92;;;8.70;99.90;;;;;;4990052;28;20030;-67
2022/12/24 04:47:51;;;;;;;19.52;2.58;;;8.70;99.90;;;;;;4991486;28;20022;-64
2022/12/24 04:50:17;;;;;;;12.57;2.22;;;8.60;99.90;;;;;;5007726;28;20053;-65
2022/12/24 04:52:42;;;;;;;15.50;2.30;;;8.60;99.90;;;;;;5012386;28;20038;-66
2022/12/24 04:55:08;;;;;;;13.98;2.22;;;8.70;99.90;;;;;;5006980;28;20501;-67
2022/12/24 04:57:36;;;;;;;11.68;2.40;;;8.70;99.90;;;;;;5006484;28;20696;-68
2022/12/24 05:00:04;;;;;;;12.32;2.42;;;8.70;99.90;;;;;;4991455;28;20026;-65
2022/12/24 05:02:29;;;;;;;16.90;2.83;;;8.80;99.90;;;;;;5004799;28;20153;-66
2022/12/24 05:04:55;;;;;;;17.00;2.75;;;8.80;99.90;;;;;;5005916;28;20989;-69
2022/12/24 05:07:21;;;;;;;15.60;2.30;;;8.80;99.90;;;;;;4989131;28;20062;-67
2022/12/24 05:09:47;;;;;;;13.75;2.25;;;8.70;99.90;;;;;;4988767;28;20022;-66
2022/12/24 05:12:12;;;;;;;10.13;1.90;;;8.80;99.90;;;;;;5005461;28;20380;-67
2022/12/24 05:14:39;;;;;;;14.60;2.30;;;8.80;99.90;;;;;;5020381;28;20030;-65
2022/12/24 05:17:05;;;;;;;17.83;2.15;;;8.80;99.90;;;;;;4991730;28;20038;-65
2022/12/24 05:19:31;;;;;;;13.80;2.17;;;8.80;99.90;;;;;;4988476;28;20081;-67
2022/12/24 05:27:25;;;;;;;10.30;2.33;;;8.70;99.90;;;;;;5001789;28;20114;-66
2022/12/24 05:29:50;;;;;;;11.40;1.73;;;8.70;99.90;;;;;;5018727;28;20124;-67
2022/12/24 05:32:16;;;;;;;7.95;1.48;;;8.70;99.90;;;;;;4988744;28;20034;-66
2022/12/24 05:34:42;;;;;;;9.50;1.75;;;8.70;99.90;;;;;;4988372;28;20117;-67
2022/12/24 05:37:07;;;;;;;10.05;1.77;;;8.70;99.90;;;;;;4987624;28;20046;-67
2022/12/24 05:39:33;;;;;;;13.00;1.77;;;8.60;99.90;;;;;;4998293;28;20034;-67
2022/12/24 05:41:58;;;;;;;8.05;1.60;;;8.60;99.90;;;;;;5007105;28;20041;-66
2022/12/24 05:44:24;;;;;;;11.55;2.42;;;8.60;99.90;;;;;;5013062;28;20167;-66
2022/12/24 05:46:50;;;;;;;9.38;1.95;;;8.60;99.90;;;;;;4998203;28;20476;-68
2022/12/24 05:49:15;;;;;;;13.55;1.88;;;8.60;99.90;;;;;;4988808;28;20034;-65
2022/12/24 05:51:41;;;;;;;9.77;2.10;;;8.60;99.90;;;;;;4991318;28;20034;-67
2022/12/24 05:54:07;;;;;;;10.88;2.33;;;8.50;99.90;;;;;;4990881;28;20035;-65
2022/12/24 05:56:33;;;;;;;11.60;2.50;;;8.50;99.90;;;;;;5006817;28;20033;-66
2022/12/24 05:58:58;;;;;;;15.77;2.83;;;8.50;99.90;;;;;;5008384;28;20244;-67
2022/12/24 06:01:24;;;;;;;15.23;2.97;;;8.40;99.90;;;;;;4998413;28;20046;-67
2022/12/24 06:03:51;;;;;;;17.85;2.63;;;8.40;99.90;;;;;;5009562;28;20045;-66
2022/12/24 06:06:26;;;;;;;11.00;2.47;;;8.40;99.90;;;;;;5002029;28;20026;-67
2022/12/24 06:08:53;;;;;;;15.55;2.78;;;8.30;99.90;;;;;;4994791;28;20069;-66
2022/12/24 06:11:21;;;;;;;16.75;3.88;;;8.40;99.90;;;;;;5005847;28;20030;-67
2022/12/24 06:13:47;;;;;;;17.80;3.40;;;8.40;99.90;;;;;;4993554;28;20042;-66
2022/12/24 06:16:16;;;;;;;14.38;2.10;;;8.30;99.90;;;;;;5011344;28;20030;-65
2022/12/24 06:18:41;;;;;;;17.23;2.45;;;8.30;99.90;;;;;;4993802;28;20034;-66
2022/12/24 06:21:07;;;;;;;18.38;2.30;;;8.30;99.90;;;;;;5015887;28;20073;-66
2022/12/24 06:23:35;;;;;;;11.77;2.00;;;8.30;99.90;;;;;;5014599;28;20050;-65
2022/12/24 06:26:02;;;;;;;11.68;2.38;;;8.30;99.90;;;;;;5029557;28;20145;-65
2022/12/24 06:28:32;;;;;;;8.52;2.08;;;8.30;99.90;;;;;;5031138;28;20540;-67
2022/12/24 06:30:58;;;;;;;23.98;2.33;;;8.20;99.90;;;;;;5020223;28;20509;-65
2022/12/24 06:33:24;;;;;;;12.13;2.60;;;8.30;99.90;;;;;;5011781;28;20160;-66
2022/12/24 06:35:49;;;;;;;14.35;2.25;;;8.30;99.90;;;;;;5010682;28;20129;-67
2022/12/24 06:38:15;;;;;;;16.85;3.03;;;8.20;99.90;;;;;;5021358;28;20038;-66
2022/12/24 06:40:43;;;;;;;15.10;1.90;;;8.20;99.90;;;;;;5022047;28;20080;-69
2022/12/24 06:43:09;;;;;;;17.77;2.38;;;8.10;99.90;;;;;;5018986;28;20026;-66
2022/12/24 06:45:35;;;;;;;7.82;2.08;;;8.10;99.90;;;;;;5030704;28;20036;-66
2022/12/24 06:48:01;;;;;;;12.60;2.53;;;8.10;99.90;;;;;;5011321;28;20095;-65
2022/12/24 06:50:27;;;;;;;12.77;2.53;;;8.10;99.90;;;;;;5010556;28;20030;-66
2022/12/24 06:52:53;;;;;;;12.45;2.05;;;8.10;99.90;;;;;;5005004;28;20033;-67
2022/12/24 06:55:18;;;;;;;8.65;2.88;;;8.10;99.90;;;;;;5010557;28;20121;-64
2022/12/24 06:57:44;;;;;;;15.68;3.30;;;8.10;99.90;;;;;;5014006;28;20034;-66
2022/12/24 07:00:11;;;;;;;11.50;2.60;;;8.10;99.90;;;;;;4999824;28;20030;-66
2022/12/24 07:02:41;;;;;;;15.38;2.60;;;8.10;99.90;;;;;;5018745;28;20037;-65
2022/12/24 07:05:09;;;;;;;13.55;2.88;;;8.10;99.90;;;;;;5005399;28;20042;-67
2022/12/24 07:07:37;;;;;;;16.17;2.45;;;8.10;99.90;;;;;;5005618;28;20069;-67
2022/12/24 07:10:03;;;;;;;10.90;2.40;;;8.10;99.90;;;;;;4995834;28;20052;-69
2022/12/24 07:12:29;;;;;;;14.60;2.63;;;8.10;99.90;;;;;;5004812;28;20076;-66
2022/12/24 07:14:54;;;;;;;13.80;2.42;;;8.00;99.90;;;;;;5007150;28;20098;-66
2022/12/24 07:17:20;;;;;;;10.57;2.00;;;8.00;99.90;;;;;;5030287;28;20083;-66
2022/12/24 07:19:45;;;;;;;10.43;2.10;;;8.10;99.90;;;;;;5003210;28;20033;-66
2022/12/24 07:22:11;;;;;;;11.82;2.70;;;8.10;99.90;;;;;;5025320;28;20460;-66
2022/12/24 07:24:37;;;;;;;11.90;2.22;;;8.10;99.90;;;;;;4994980;28;20078;-66
2022/12/24 07:27:02;;;;;;;12.82;2.22;;;8.00;99.90;;;;;;5011172;28;20522;-64
2022/12/24 07:29:28;;;;;;;14.02;2.63;;;8.00;99.90;;;;;;5013430;28;20033;-64
2022/12/24 07:31:54;;;;;;;9.95;2.10;;;8.00;99.90;;;;;;5015722;28;20875;-66
2022/12/24 07:34:19;;;;;;;14.27;2.60;;;8.00;99.90;;;;;;5003323;28;20037;-66
2022/12/24 07:36:45;;;;;;;14.55;2.40;;;8.00;99.90;;;;;;5006339;28;20109;-65
2022/12/24 07:39:10;;;;;;;12.13;2.30;;;8.00;99.90;;;;;;5006013;28;20069;-64
2022/12/24 07:41:36;;;;;;;11.10;2.80;;;8.00;99.90;;;;;;5007588;28;20042;-62
2022/12/24 07:44:02;;;;;;;10.63;2.70;;;8.00;99.90;;;;;;4998439;28;20651;-64
2022/12/24 07:46:27;;;;;;;12.10;2.53;;;8.00;99.90;;;;;;5006358;28;20464;-65
2022/12/24 07:48:53;;;;;;;17.05;3.10;;;8.10;99.90;;;;;;5006766;28;20066;-64
2022/12/24 07:51:19;;;;;;;11.52;2.72;;;8.00;99.90;;;;;;4999858;28;20034;-65
2022/12/24 07:53:46;;;;;;;20.05;3.03;;;8.10;99.90;;;;;;4989210;28;20027;-65
2022/12/24 07:56:16;;;;;;;12.93;3.30;;;8.10;99.90;;;;;;5000928;28;20034;-63
2022/12/24 07:58:44;;;;;;;12.02;3.08;;;8.10;99.90;;;;;;4991302;28;20518;-66
2022/12/24 08:01:10;;;;;;;17.63;2.92;;;8.10;99.90;;;;;;5000390;28;20084;-65
2022/12/24 08:03:36;;;;;;;11.52;3.03;;;8.10;99.90;;;;;;5006349;28;20041;-64
2022/12/24 08:06:01;;;;;;;14.32;3.53;;;8.10;99.90;;;;;;4990863;28;20117;-62
2022/12/24 08:08:27;;;;;;;12.82;3.33;;;8.10;99.90;;;;;;4998383;28;20091;-65
2022/12/24 08:10:52;;;;;;;12.38;3.03;;;8.00;99.90;;;;;;5008541;28;20037;-65
2022/12/24 08:13:18;;;;;;;11.10;3.35;;;8.10;99.90;;;;;;5008957;28;20026;-65
2022/12/24 08:15:44;;;;;;;18.83;3.78;;;8.10;99.90;;;;;;5006011;28;20044;-66
2022/12/24 08:18:11;;;;;;;10.65;3.22;;;8.00;99.90;;;;;;5001392;28;20104;-65
2022/12/24 08:20:38;;;;;;;12.18;3.70;;;8.00;99.90;;;;;;5007171;28;20471;-65
2022/12/24 08:23:05;;;;;;;12.10;3.20;;;8.00;99.90;;;;;;5008190;28;20098;-65
2022/12/24 08:25:31;;;;;;;11.88;3.15;;;8.10;99.90;;;;;;5006735;28;20065;-64
2022/12/24 08:27:56;;;;;;;15.05;3.28;;;8.20;99.90;;;;;;5000678;28;20486;-65
2022/12/24 08:30:22;;;;;;;14.57;3.47;;;8.20;99.90;;;;;;5005055;28;20386;-63
2022/12/24 08:32:48;;;;;;;14.20;3.42;;;8.20;99.90;;;;;;4997921;28;20026;-65
2022/12/24 08:35:13;;;;;;;11.18;2.85;;;8.30;99.90;;;;;;5003651;28;20026;-63
2022/12/24 08:37:39;;;;;;;11.35;2.40;;;8.30;99.90;;;;;;4994576;28;20082;-64
2022/12/24 08:40:05;;;;;;;13.93;2.75;;;8.30;99.90;;;;;;5004525;28;20054;-65
2022/12/24 08:42:31;;;;;;;14.90;2.63;;;8.30;99.90;;;;;;5000656;28;20048;-64
2022/12/24 08:44:56;;;;;;;13.48;2.70;;;8.30;99.90;;;;;;5005138;28;20045;-64
2022/12/24 08:47:22;;;;;;;13.75;2.83;;;8.40;99.90;;;;;;5005446;28;20490;-66
2022/12/24 08:49:48;;;;;;;11.65;2.60;;;8.40;99.90;;;;;;4997188;28;20030;-64
2022/12/24 08:52:13;;;;;;;7.68;2.25;;;8.50;99.90;;;;;;5004534;28;20058;-63
2022/12/24 08:54:39;;;;;;;11.82;2.78;;;8.60;99.90;;;;;;5008317;28;20570;-63
2022/12/24 08:57:04;;;;;;;14.43;2.65;;;8.60;99.90;;;;;;5016933;28;20036;-63
2022/12/24 08:59:30;;;;;;;16.17;2.30;;;8.60;99.90;;;;;;5006315;28;20026;-63
2022/12/24 09:01:55;;;;;;;16.70;2.38;;;8.70;99.90;;;;;;5009322;28;20067;-65
2022/12/24 09:04:21;;;;;;;10.98;2.50;;;8.70;99.90;;;;;;5018204;28;20057;-63
2022/12/24 09:06:47;;;;;;;11.38;2.30;;;8.70;99.90;;;;;;5000660;28;20105;-65
2022/12/24 09:09:12;;;;;;;13.85;2.80;;;8.80;99.90;;;;;;4992934;28;20034;-64
2022/12/24 09:11:38;;;;;;;11.57;2.17;;;8.80;99.90;;;;;;4997021;28;20052;-64
2022/12/24 09:14:04;;;;;;;16.40;3.05;;;8.80;99.90;;;;;;5005244;28;20034;-63
2022/12/24 09:16:29;;;;;;;11.43;1.92;;;8.80;99.90;;;;;;4992992;28;20038;-66
2022/12/24 09:18:56;;;;;;;11.75;2.55;;;8.80;99.90;;;;;;5005989;28;20061;-66
2022/12/24 09:21:22;;;;;;;10.27;2.30;;;8.80;99.90;;;;;;5016670;28;20099;-64
2022/12/24 09:23:48;;;;;;;15.10;2.13;;;8.90;99.90;;;;;;5001638;28;20050;-71
2022/12/24 09:26:16;;;;;;;12.18;2.20;;;8.90;99.90;;;;;;5001124;28;20030;-63
2022/12/24 09:28:42;;;;;;;9.52;2.10;;;8.90;99.90;;;;;;5006740;28;20470;-64
2022/12/24 09:31:09;;;;;;;9.60;2.10;;;8.90;99.90;;;;;;5019004;28;20033;-64
2022/12/24 09:33:37;;;;;;;9.00;2.38;;;8.90;99.90;;;;;;5000156;28;20049;-64
2022/12/24 09:36:04;;;;;;;11.00;2.38;;;8.90;99.90;;;;;;5016715;28;20437;-64
2022/12/24 09:38:33;;;;;;;9.45;1.95;;;9.00;99.90;;;;;;5009059;28;20368;-62
2022/12/24 09:41:00;;;;;;;14.23;2.85;;;8.90;99.90;;;;;;5006227;28;20463;-63
2022/12/24 09:43:30;;;;;;;21.27;2.95;;;9.00;99.90;;;;;;5004436;28;20038;-64
2022/12/24 09:46:05;;;;;;;15.32;3.33;;;9.00;99.90;;;;;;5006268;28;20108;-62
2022/12/24 09:48:33;;;;;;;20.15;3.45;;;9.00;99.90;;;;;;4996399;28;20042;-63
2022/12/24 09:51:23;;;;;;;14.15;2.75;;;9.00;99.90;;;;;;5000146;28;20117;-64
2022/12/24 09:54:02;;;;;;;12.20;3.08;;;9.10;99.90;;;;;;5020914;28;20031;-64
2022/12/24 09:56:33;;;;;;;13.95;3.10;;;9.20;99.90;;;;;;5002408;28;20427;-64
2022/12/24 09:59:05;;;;;;;10.25;2.65;;;9.30;99.90;;;;;;5006081;28;20109;-64
2022/12/24 10:01:33;;;;;;;8.82;2.20;;;9.30;99.90;;;;;;4996820;28;20468;-63
2022/12/24 10:04:08;;;;;;;17.67;2.10;;;9.30;99.90;;;;;;5014247;28;20042;-65
2022/12/24 10:06:49;;;;;;;12.10;2.53;;;9.40;99.90;;;;;;5008743;28;20027;-65
2022/12/24 10:10:05;;;;;;;10.63;2.60;;;9.60;99.90;;;;;;4999310;28;20097;-64
2022/12/24 10:12:50;;;;;;;18.45;2.70;;;9.70;99.90;;;;;;4999267;28;20042;-64
2022/12/24 10:15:28;;;;;;;18.88;3.15;;;9.80;99.90;;;;;;5007382;28;20033;-65
2022/12/24 10:18:01;;;;;;;17.45;3.35;;;9.60;99.90;;;;;;5000846;28;20041;-64
2022/12/24 10:20:46;;;;;;;13.55;2.95;;;9.60;99.90;;;;;;5030417;28;20375;-64
2022/12/24 10:23:19;;;;;;;14.35;2.33;;;9.60;99.90;;;;;;5008379;28;20049;-64
2022/12/24 10:26:09;;;;;;;17.10;2.65;;;9.60;99.90;;;;;;5011795;28;20116;-65
2022/12/24 10:28:43;;;;;;;19.65;2.58;;;9.60;99.90;;;;;;5008623;28;20109;-64
2022/12/24 10:31:09;;;;;;;22.25;2.72;;;9.70;99.90;;;;;;5007827;28;20038;-63
2022/12/24 10:33:52;;;;;;;15.02;2.85;;;9.80;99.90;;;;;;5007952;28;20026;-64
2022/12/24 10:36:25;;;;;;;13.82;2.35;;;9.90;99.90;;;;;;5007090;28;20113;-65
2022/12/24 10:38:51;;;;;;;10.65;1.95;;;10.10;99.90;;;;;;5005871;28;20403;-66
2022/12/24 10:41:17;;;;;;;11.38;2.40;;;10.20;99.90;;;;;;5008138;28;20038;-65
2022/12/24 10:43:44;;;;;;;13.88;2.80;;;10.40;99.90;;;;;;5007519;28;21128;-64
2022/12/24 10:46:22;;;;;;;12.52;2.17;;;10.50;99.90;;;;;;5005110;28;20042;-64
2022/12/24 10:49:08;;;;;;;13.98;2.30;;;10.60;99.90;;;;;;5006765;28;20391;-64
2022/12/24 10:51:49;;;;;;;16.80;2.45;;;10.70;99.90;;;;;;4992918;28;20107;-65
2022/12/24 10:54:21;;;;;;;10.65;2.20;;;10.70;99.90;;;;;;4998003;28;20034;-66
2022/12/24 10:56:51;;;;;;;13.90;2.58;;;10.70;99.90;;;;;;5003071;28;20030;-65
2022/12/24 10:59:25;;;;;;;12.98;2.92;;;10.70;99.90;;;;;;4995277;28;20050;-65
2022/12/24 11:01:52;;;;;;;13.70;2.08;;;10.70;99.90;;;;;;4993455;28;20495;-65
2022/12/24 11:04:27;;;;;;;14.98;2.65;;;10.80;99.90;;;;;;4993981;28;20037;-64
2022/12/24 11:07:03;;;;;;;22.70;3.10;;;11.00;99.90;;;;;;5001704;28;20107;-68
2022/12/24 11:09:52;;;;;;;13.10;2.40;;;10.80;99.90;;;;;;4999447;28;20681;-65
2022/12/24 11:12:22;;;;;;;15.57;2.63;;;10.50;99.90;;;;;;4998530;28;20049;-65
2022/12/24 11:14:59;;;;;;;16.30;2.15;;;10.60;99.90;;;;;;4997138;28;20034;-65
2022/12/24 11:17:25;;;;;;;11.52;2.67;;;10.80;99.90;;;;;;4999619;28;20643;-65
2022/12/24 11:19:51;;;;;;;22.25;3.00;;;10.90;99.90;;;;;;5002638;28;20033;-64
2022/12/24 11:22:21;;;;;;;14.20;2.60;;;11.00;99.90;;;;;;4997770;28;20486;-64
2022/12/24 11:24:59;;;;;;;12.68;2.50;;;11.10;99.90;;;;;;5002106;28;20080;-64
2022/12/24 11:27:48;;;;;;;14.52;2.13;;;11.20;99.90;;;;;;5006323;28;20494;-64
2022/12/24 11:30:14;;;;;;;17.55;2.65;;;10.90;99.90;;;;;;5000322;28;20025;-66
2022/12/24 11:32:44;;;;;;;12.93;1.83;;;10.80;99.90;;;;;;5004005;28;20458;-64
2022/12/24 11:35:20;;;;;;;14.57;2.60;;;10.80;99.90;;;;;;5008317;28;20029;-68
2022/12/24 11:37:58;;;;;;;15.00;2.05;;;11.00;99.90;;;;;;5004982;28;20040;-66
2022/12/24 11:40:27;;;;;;;18.10;2.42;;;11.10;99.90;;;;;;5000165;28;20033;-64
2022/12/24 11:42:59;;;;;;;10.88;2.42;;;11.30;99.90;;;;;;4990479;28;20049;-63
2022/12/24 11:45:27;;;;;;;11.85;2.15;;;11.50;99.90;;;;;;4990423;28;20096;-65
2022/12/24 11:47:53;;;;;;;15.13;2.13;;;11.40;99.90;;;;;;4990534;28;20037;-64
2022/12/24 11:50:29;;;;;;;13.90;2.70;;;11.00;99.90;;;;;;5002168;28;20589;-63
2022/12/24 11:53:24;;;;;;;16.92;2.58;;;10.90;99.90;;;;;;5025324;28;20038;-68
2022/12/24 11:55:55;;;;;;;10.98;2.55;;;10.70;99.90;;;;;;5029507;28;20037;-64
2022/12/24 11:58:50;;;;;;;14.38;2.03;;;10.70;99.90;;;;;;5028858;28;20037;-65
2022/12/24 12:01:33;;;;;;;14.70;1.98;;;10.60;99.90;;;;;;5028488;28;20037;-64
2022/12/24 12:04:09;;;;;;;22.92;2.20;;;10.40;99.90;;;;;;5028476;28;20037;-67
2022/12/24 12:06:40;;;;;;;11.50;1.80;;;10.40;99.90;;;;;;5026616;28;20454;-62
2022/12/24 12:09:17;;;;;;;15.07;2.63;;;10.40;99.90;;;;;;5025191;28;20499;-63
2022/12/24 12:11:47;;;;;;;17.88;2.67;;;10.40;99.90;;;;;;5009454;28;20038;-63
2022/12/24 12:14:28;;;;;;;10.38;2.40;;;10.50;99.90;;;;;;5008966;28;20034;-64
2022/12/24 12:17:06;;;;;;;;;;;10.60;99.90;;;;;;5008559;28;20034;-63
2022/12/24 12:19:42;;;;;;;19.40;3.03;;;10.70;99.90;;;;;;5009798;28;20246;-62
2022/12/24 12:22:27;;;;;;;11.40;1.77;;;10.70;99.90;;;;;;5023089;28;20497;-63
2022/12/24 12:24:55;;;;;;;19.48;2.70;;;10.80;99.90;;;;;;5029000;28;20045;-63
2022/12/24 12:27:32;;;;;;;11.05;2.65;;;11.10;99.90;;;;;;5028230;28;20080;-64
2022/12/24 12:30:05;;;;;;;22.38;3.03;;;11.00;99.90;;;;;;5019888;28;20034;-65
2022/12/24 12:32:50;;;;;;;13.43;2.17;;;11.00;99.90;;;;;;5009239;28;20129;-63
2022/12/24 12:35:24;;;;;;;16.63;3.00;;;10.90;99.90;;;;;;5009085;28;20054;-63
2022/12/24 12:38:03;;;;;;;19.13;2.72;;;10.80;99.90;;;;;;5028904;28;20386;-64
2022/12/24 12:40:54;;;;;;;16.98;2.83;;;10.70;99.90;;;;;;5028694;28;20404;-64
2022/12/24 12:43:57;;;;;;;13.02;2.38;;;10.60;99.90;;;;;;5028125;28;20041;-64
2022/12/24 12:46:37;;;;;;;13.13;2.13;;;10.60;99.90;;;;;;5026838;28;20025;-63
2022/12/24 12:49:07;;;;;;;9.32;3.03;;;10.50;99.90;;;;;;5027981;28;20026;-64
2022/12/24 12:51:53;;;;;;;13.23;2.28;;;10.50;99.90;;;;;;5022131;28;20098;-62
2022/12/24 12:54:39;;;;;;;14.55;2.65;;;10.50;99.90;;;;;;5023634;28;20088;-64
2022/12/24 12:57:10;;;;;;;18.83;2.78;;;10.40;99.90;;;;;;5007998;28;20533;-64
2022/12/24 13:00:05;;;;;;;15.02;2.80;;;10.40;99.90;;;;;;5008796;28;20034;-62
2022/12/24 13:03:09;;;;;;;13.18;2.95;;;10.30;99.90;;;;;;5002580;28;20066;-63
2022/12/24 13:06:03;;;;;;;13.43;2.97;;;10.30;99.90;;;;;;5012335;28;20163;-64
2022/12/24 13:09:16;;;;;;;14.73;2.92;;;10.30;99.90;;;;;;5010993;28;20034;-63
2022/12/24 13:12:32;;;;;;;13.85;2.47;;;10.20;99.90;;;;;;5010454;28;20069;-63
2022/12/24 13:15:44;;;;;;;20.65;2.58;;;10.20;99.90;;;;;;5012309;28;20165;-64